createdAt,value
2023-02-09T00:00:06.352Z,61.07
2023-02-09T00:02:33.616Z,61.44
2023-02-09T00:04:59.949Z,62.84
2023-02-09T00:07:26.324Z,61.12
2023-02-09T00:09:52.605Z,61.60
2023-02-09T00:12:38.331Z,61.61
2023-02-09T00:15:05.999Z,63.09
2023-02-09T00:17:33.566Z,63.21
2023-02-09T00:19:59.901Z,63.53
2023-02-09T00:22:26.403Z,63.00
2023-02-09T00:24:52.768Z,62.94
2023-02-09T00:27:19.429Z,63.01
2023-02-09T00:29:45.725Z,63.41
2023-02-09T00:32:12.163Z,63.64
2023-02-09T00:34:38.641Z,64.47
2023-02-09T00:37:05.193Z,64.28
2023-02-09T00:39:31.503Z,63.92
2023-02-09T00:42:07.049Z,62.57
2023-02-09T00:44:37.906Z,62.91
2023-02-09T00:47:05.364Z,63.58
2023-02-09T00:49:31.779Z,62.54
2023-02-09T00:51:58.089Z,63.35
2023-02-09T00:54:24.827Z,62.36
2023-02-09T00:56:51.206Z,62.35
2023-02-09T00:59:17.497Z,62.29
2023-02-09T01:01:43.792Z,62.75
2023-02-09T01:04:10.139Z,62.81
2023-02-09T01:06:36.469Z,63.17
2023-02-09T01:09:03.129Z,63.56
2023-02-09T01:11:30.277Z,62.89
2023-02-09T01:13:57.757Z,62.96
2023-02-09T01:16:24.490Z,62.89
2023-02-09T01:18:50.931Z,63.08
2023-02-09T01:21:19.222Z,63.05
2023-02-09T01:23:46.428Z,62.89
2023-02-09T01:26:13.729Z,63.25
2023-02-09T01:28:40.433Z,62.85
2023-02-09T01:31:17.401Z,63.27
2023-02-09T01:33:43.781Z,63.17
2023-02-09T01:36:10.115Z,63.29
2023-02-09T01:38:36.424Z,63.30
2023-02-09T01:41:02.738Z,62.54
2023-02-09T01:43:29.034Z,63.07
2023-02-09T01:45:55.524Z,62.96
2023-02-09T01:48:24.864Z,62.52
2023-02-09T01:50:52.518Z,62.37
2023-02-09T01:53:19.505Z,63.15
2023-02-09T01:55:51.373Z,62.70
2023-02-09T01:58:19.193Z,62.68
2023-02-09T02:00:46.433Z,62.50
2023-02-09T02:03:15.744Z,62.71
2023-02-09T02:05:43.896Z,62.54
2023-02-09T02:08:26.107Z,62.59
2023-02-09T02:10:53.017Z,62.94
2023-02-09T02:13:19.579Z,62.80
2023-02-09T02:15:56.454Z,62.57
2023-02-09T02:18:31.880Z,62.64
2023-02-09T02:20:58.156Z,62.51
2023-02-09T02:23:35.437Z,62.85
2023-02-09T02:26:19.786Z,63.14
2023-02-09T02:29:01.762Z,62.51
2023-02-09T02:31:40.473Z,62.26
2023-02-09T02:34:27.025Z,63.32
2023-02-09T02:37:12.283Z,62.64
2023-02-09T02:39:38.579Z,62.75
2023-02-09T02:42:46.793Z,63.35
2023-02-09T02:45:21.708Z,62.63
2023-02-09T02:47:51.987Z,63.33
2023-02-09T02:50:22.747Z,63.26
2023-02-09T02:52:50.519Z,63.44
2023-02-09T02:55:18.631Z,62.69
2023-02-09T02:57:47.185Z,62.27
2023-02-09T03:00:16.767Z,62.67
2023-02-09T03:02:47.529Z,62.69
2023-02-09T03:05:14.613Z,62.67
2023-02-09T03:07:41.610Z,62.61
2023-02-09T03:10:26.781Z,62.67
2023-02-09T03:13:05.058Z,62.82
2023-02-09T03:15:51.186Z,63.11
2023-02-09T03:18:23.418Z,62.93
2023-02-09T03:20:52.407Z,62.61
2023-02-09T03:23:41.932Z,62.83
2023-02-09T03:26:12.496Z,63.04
2023-02-09T03:28:41.124Z,62.54
2023-02-09T03:31:08.457Z,61.81
2023-02-09T03:33:36.972Z,62.62
2023-02-09T03:36:07.224Z,62.56
2023-02-09T03:38:33.496Z,62.67
2023-02-09T03:40:59.847Z,62.25
2023-02-09T03:43:46.127Z,62.48
2023-02-09T03:46:12.560Z,62.64
2023-02-09T03:48:39.070Z,62.59
2023-02-09T03:51:06.682Z,62.77
2023-02-09T03:53:34.614Z,62.33
2023-02-09T03:56:00.914Z,62.71
2023-02-09T03:58:27.261Z,62.68
2023-02-09T04:00:53.594Z,62.90
2023-02-09T04:03:19.894Z,62.94
2023-02-09T04:05:46.188Z,63.08
2023-02-09T04:08:12.522Z,62.56
2023-02-09T04:10:38.822Z,62.55
2023-02-09T04:13:05.092Z,62.61
2023-02-09T04:15:31.412Z,63.02
2023-02-09T04:17:57.692Z,62.55
2023-02-09T04:20:23.986Z,62.20
2023-02-09T04:22:50.321Z,62.71
2023-02-09T04:25:16.651Z,62.99
2023-02-09T04:27:42.926Z,63.11
2023-02-09T04:30:09.549Z,62.29
2023-02-09T04:32:35.831Z,62.96
2023-02-09T04:35:02.148Z,62.61
2023-02-09T04:37:28.573Z,62.46
2023-02-09T04:39:54.910Z,63.21
2023-02-09T04:42:21.177Z,62.90
2023-02-09T04:44:47.504Z,62.92
2023-02-09T04:47:13.788Z,63.33
2023-02-09T04:49:42.512Z,63.63
2023-02-09T04:52:08.852Z,63.82
2023-02-09T04:54:35.199Z,63.70
2023-02-09T04:57:20.175Z,63.08
2023-02-09T04:59:46.456Z,63.56
2023-02-09T05:02:12.735Z,63.04
2023-02-09T05:04:39.068Z,63.43
2023-02-09T05:07:05.331Z,63.76
2023-02-09T05:09:31.640Z,63.48
2023-02-09T05:11:57.933Z,64.16
2023-02-09T05:14:24.257Z,64.26
2023-02-09T05:16:50.647Z,64.02
2023-02-09T05:19:16.995Z,65.35
2023-02-09T05:21:43.286Z,64.80
2023-02-09T05:24:09.878Z,65.01
2023-02-09T05:26:36.455Z,65.06
2023-02-09T05:29:02.985Z,65.94
2023-02-09T05:31:29.399Z,66.21
2023-02-09T05:33:55.821Z,66.06
2023-02-09T05:36:22.117Z,65.89
2023-02-09T05:38:48.402Z,66.03
2023-02-09T05:41:37.447Z,65.84
2023-02-09T05:44:04.410Z,65.97
2023-02-09T05:46:30.791Z,65.20
2023-02-09T05:48:57.162Z,65.45
2023-02-09T05:51:23.508Z,65.91
2023-02-09T05:53:52.073Z,66.15
2023-02-09T05:56:18.411Z,65.62
2023-02-09T05:58:44.757Z,66.10
2023-02-09T06:01:11.037Z,65.05
2023-02-09T06:03:37.430Z,65.72
2023-02-09T06:06:03.859Z,65.80
2023-02-09T06:08:30.158Z,65.28
2023-02-09T06:10:56.473Z,65.26
2023-02-09T06:13:22.749Z,64.33
2023-02-09T06:15:49.115Z,64.98
2023-02-09T06:18:15.451Z,64.40
2023-02-09T06:20:41.737Z,64.77
2023-02-09T06:23:08.103Z,63.84
2023-02-09T06:25:34.453Z,65.16
2023-02-09T06:28:01.443Z,65.12
2023-02-09T06:30:27.746Z,64.37
2023-02-09T06:32:54.045Z,64.94
2023-02-09T06:35:20.342Z,64.38
2023-02-09T06:37:46.610Z,64.20
2023-02-09T06:40:12.941Z,64.10
2023-02-09T06:42:45.222Z,64.69
2023-02-09T06:45:16.190Z,64.80
2023-02-09T06:47:43.173Z,64.64
2023-02-09T06:50:10.323Z,64.93
2023-02-09T06:52:36.940Z,64.72
2023-02-09T06:55:03.566Z,64.47
2023-02-09T06:57:30.083Z,65.05
2023-02-09T06:59:56.438Z,64.60
2023-02-09T07:02:22.791Z,64.45
2023-02-09T07:04:49.085Z,64.87
2023-02-09T07:07:15.486Z,64.99
2023-02-09T07:09:41.913Z,65.21
2023-02-09T07:12:08.400Z,64.21
2023-02-09T07:14:34.880Z,64.78
2023-02-09T07:17:01.190Z,64.82
2023-02-09T07:19:27.520Z,64.50
2023-02-09T07:21:53.861Z,64.98
2023-02-09T07:24:20.194Z,64.76
2023-02-09T07:26:46.490Z,64.50
2023-02-09T07:29:13.023Z,65.44
2023-02-09T07:31:39.444Z,64.35
2023-02-09T07:34:05.812Z,64.72
2023-02-09T07:36:32.172Z,64.38
2023-02-09T07:38:59.525Z,63.89
2023-02-09T07:41:26.260Z,64.34
2023-02-09T07:43:52.657Z,64.04
2023-02-09T07:46:21.102Z,64.04
2023-02-09T07:48:47.928Z,64.26
2023-02-09T07:51:19.841Z,64.21
2023-02-09T07:53:47.246Z,64.17
2023-02-09T07:56:13.574Z,64.29
2023-02-09T07:58:39.928Z,64.13
2023-02-09T08:01:07.091Z,63.71
2023-02-09T08:03:35.324Z,64.84
2023-02-09T08:06:03.888Z,64.23
2023-02-09T08:08:30.398Z,63.65
2023-02-09T08:10:58.181Z,64.02
2023-02-09T08:13:28.512Z,63.73
2023-02-09T08:15:57.594Z,63.43
2023-02-09T08:18:27.771Z,63.86
2023-02-09T08:20:54.424Z,63.32
2023-02-09T08:23:23.471Z,63.78
2023-02-09T08:25:51.477Z,62.76
2023-02-09T08:28:19.215Z,63.77
2023-02-09T08:30:45.930Z,62.95
2023-02-09T08:33:12.236Z,63.18
2023-02-09T08:35:38.529Z,63.12
2023-02-09T08:38:04.934Z,63.91
2023-02-09T08:40:31.528Z,62.46
2023-02-09T08:42:58.271Z,62.58
2023-02-09T08:45:24.695Z,62.11
2023-02-09T08:47:51.189Z,63.09
2023-02-09T08:50:17.585Z,62.75
2023-02-09T08:52:43.941Z,62.83
2023-02-09T08:55:10.368Z,61.31
2023-02-09T08:57:43.889Z,61.96
2023-02-09T09:00:11.079Z,61.46
2023-02-09T09:02:37.470Z,61.36
2023-02-09T09:05:03.785Z,61.27
2023-02-09T09:07:30.070Z,62.58
2023-02-09T09:09:56.395Z,61.51
2023-02-09T09:12:22.714Z,62.55
2023-02-09T09:14:49.034Z,62.12
2023-02-09T09:17:15.506Z,62.30
2023-02-09T09:19:41.806Z,60.94
2023-02-09T09:22:08.086Z,61.73
2023-02-09T09:24:40.393Z,61.86
2023-02-09T09:27:07.990Z,61.38
2023-02-09T09:29:35.395Z,61.68
2023-02-09T09:32:01.916Z,60.40
2023-02-09T09:34:28.534Z,61.94
2023-02-09T09:36:54.834Z,60.56
2023-02-09T09:39:21.165Z,60.35
2023-02-09T09:41:48.844Z,60.85
2023-02-09T09:44:17.616Z,60.25
2023-02-09T09:46:46.691Z,60.92
2023-02-09T09:49:27.030Z,60.41
2023-02-09T09:51:59.289Z,60.45
2023-02-09T09:54:27.774Z,60.86
2023-02-09T09:56:54.413Z,59.97
2023-02-09T09:59:26.048Z,60.53
2023-02-09T10:01:53.463Z,60.38
2023-02-09T10:04:20.979Z,60.35
2023-02-09T10:06:52.298Z,60.41
2023-02-09T10:09:27.799Z,59.74
2023-02-09T10:12:12.950Z,59.51
2023-02-09T10:14:39.234Z,60.02
2023-02-09T10:17:05.966Z,60.10
2023-02-09T10:19:32.784Z,60.04
2023-02-09T10:21:59.154Z,59.85
2023-02-09T10:24:29.942Z,59.34
2023-02-09T10:27:08.496Z,60.16
2023-02-09T10:29:35.534Z,58.74
2023-02-09T10:32:14.793Z,58.07
2023-02-09T10:34:44.290Z,57.69
2023-02-09T10:37:22.642Z,58.85
2023-02-09T10:39:55.547Z,57.70
2023-02-09T10:42:25.050Z,58.24
2023-02-09T10:44:53.218Z,58.80
2023-02-09T10:47:19.511Z,57.19
2023-02-09T10:50:04.760Z,58.56
2023-02-09T10:52:35.781Z,58.05
2023-02-09T10:55:05.066Z,58.19
2023-02-09T10:57:38.262Z,56.56
2023-02-09T11:00:16.864Z,56.27
2023-02-09T11:02:51.024Z,57.39
2023-02-09T11:05:20.090Z,57.80
2023-02-09T11:07:59.078Z,57.16
2023-02-09T11:10:27.487Z,57.51
2023-02-09T11:12:53.796Z,57.29
2023-02-09T11:15:23.803Z,57.34
2023-02-09T11:17:52.985Z,57.39
2023-02-09T11:20:42.316Z,57.84
2023-02-09T11:23:11.512Z,57.33
2023-02-09T11:25:56.261Z,57.47
2023-02-09T11:28:33.079Z,55.72
2023-02-09T11:31:11.830Z,55.56
2023-02-09T11:33:38.214Z,56.56
2023-02-09T11:36:23.210Z,54.71
2023-02-09T11:38:58.801Z,55.29
2023-02-09T11:41:47.590Z,55.36
2023-02-09T11:44:21.452Z,54.21
2023-02-09T11:46:49.176Z,53.80
2023-02-09T11:49:19.441Z,53.58
2023-02-09T11:51:47.298Z,54.54
2023-02-09T11:54:18.462Z,55.34
2023-02-09T11:56:48.285Z,53.96
2023-02-09T11:59:14.575Z,53.40
2023-02-09T12:01:52.538Z,53.68
2023-02-09T12:04:22.622Z,54.55
2023-02-09T12:06:50.793Z,53.83
2023-02-09T12:09:19.931Z,53.58
2023-02-09T12:11:57.475Z,53.60
2023-02-09T12:14:29.944Z,52.69
2023-02-09T12:17:05.145Z,53.72
2023-02-09T12:19:34.461Z,55.13
2023-02-09T12:22:19.280Z,54.74
2023-02-09T12:25:04.124Z,54.70
2023-02-09T12:27:30.635Z,54.17
2023-02-09T12:29:56.919Z,53.33
2023-02-09T12:32:24.931Z,54.46
2023-02-09T12:34:53.759Z,54.11
2023-02-09T12:37:27.259Z,53.39
2023-02-09T12:40:12.052Z,53.74
2023-02-09T12:42:40.050Z,52.64
2023-02-09T12:45:25.367Z,53.29
2023-02-09T12:47:56.977Z,53.25
2023-02-09T12:50:45.878Z,53.36
2023-02-09T12:53:27.384Z,53.78
2023-02-09T12:56:00.895Z,53.88
2023-02-09T12:58:54.192Z,52.96
2023-02-09T13:01:20.726Z,52.45
2023-02-09T13:03:47.092Z,53.29
2023-02-09T13:06:39.634Z,53.88
2023-02-09T13:09:09.423Z,54.55
2023-02-09T13:11:49.689Z,53.18
2023-02-09T13:14:18.121Z,53.44
2023-02-09T13:16:50.319Z,53.81
2023-02-09T13:19:48.022Z,54.32
2023-02-09T13:22:33.432Z,54.02
2023-02-09T13:25:17.842Z,53.57
2023-02-09T13:27:48.473Z,55.01
2023-02-09T13:30:25.156Z,53.56
2023-02-09T13:32:51.502Z,54.04
2023-02-09T13:35:28.584Z,54.11
2023-02-09T13:37:56.479Z,53.88
2023-02-09T13:40:24.580Z,54.16
2023-02-09T13:43:03.039Z,54.55
2023-02-09T13:45:29.917Z,53.37
2023-02-09T13:47:59.013Z,54.59
2023-02-09T13:50:28.184Z,53.61
2023-02-09T13:52:54.494Z,54.23
2023-02-09T13:55:25.271Z,55.17
2023-02-09T13:57:59.793Z,54.99
2023-02-09T14:00:29.679Z,54.68
2023-02-09T14:03:01.684Z,55.25
2023-02-09T14:05:28.056Z,55.63
2023-02-09T14:07:54.952Z,55.34
2023-02-09T14:10:21.593Z,54.88
2023-02-09T14:13:03.605Z,54.28
2023-02-09T14:15:59.372Z,56.25
2023-02-09T14:18:33.443Z,55.81
2023-02-09T14:20:59.869Z,55.28
2023-02-09T14:23:27.553Z,54.58
2023-02-09T14:26:02.838Z,56.75
2023-02-09T14:28:29.206Z,55.80
2023-02-09T14:30:55.735Z,56.95
2023-02-09T14:33:24.850Z,55.52
2023-02-09T14:35:55.561Z,55.32
2023-02-09T14:38:36.770Z,56.75
2023-02-09T14:41:21.906Z,56.58
2023-02-09T14:44:06.479Z,55.88
2023-02-09T14:46:48.454Z,56.80
2023-02-09T14:49:14.923Z,56.72
2023-02-09T14:51:41.674Z,55.97
2023-02-09T14:54:16.946Z,56.68
2023-02-09T14:56:43.344Z,55.97
2023-02-09T14:59:15.666Z,55.95
2023-02-09T15:01:42.069Z,56.01
2023-02-09T15:04:08.482Z,55.88
2023-02-09T15:06:35.976Z,56.80
2023-02-09T15:09:05.153Z,56.62
2023-02-09T15:11:50.067Z,56.17
2023-02-09T15:14:16.719Z,57.15
2023-02-09T15:16:43.005Z,56.31
2023-02-09T15:19:14.798Z,57.10
2023-02-09T15:21:41.143Z,56.41
2023-02-09T15:24:07.560Z,57.24
2023-02-09T15:26:35.631Z,57.38
2023-02-09T15:29:02.286Z,56.39
2023-02-09T15:31:28.850Z,57.03
2023-02-09T15:33:55.341Z,57.27
2023-02-09T15:36:28.876Z,58.07
2023-02-09T15:38:55.663Z,56.59
2023-02-09T15:41:40.578Z,57.72
2023-02-09T15:44:37.930Z,57.91
2023-02-09T15:47:23.287Z,56.91
2023-02-09T15:49:49.787Z,58.48
2023-02-09T15:52:17.859Z,57.35
2023-02-09T15:54:44.590Z,57.44
2023-02-09T15:57:12.030Z,58.45
2023-02-09T15:59:38.446Z,58.42
2023-02-09T16:02:10.729Z,58.30
2023-02-09T16:04:37.077Z,58.29
2023-02-09T16:07:03.454Z,58.05
2023-02-09T16:09:30.848Z,57.30
2023-02-09T16:11:57.393Z,57.90
2023-02-09T16:14:26.541Z,59.13
2023-02-09T16:16:53.178Z,59.01
2023-02-09T16:19:20.554Z,58.91
2023-02-09T16:21:49.475Z,57.81
2023-02-09T16:24:22.559Z,57.86
2023-02-09T16:26:48.964Z,57.85
2023-02-09T16:29:15.955Z,58.32
2023-02-09T16:31:42.367Z,57.54
2023-02-09T16:34:12.506Z,57.84
2023-02-09T16:36:38.826Z,57.98
2023-02-09T16:39:06.159Z,58.72
2023-02-09T16:41:48.227Z,58.72
2023-02-09T16:44:22.244Z,58.94
2023-02-09T16:46:50.438Z,57.67
2023-02-09T16:49:27.563Z,58.50
2023-02-09T16:51:56.154Z,58.40
2023-02-09T16:54:22.538Z,57.99
2023-02-09T16:56:54.042Z,59.21
2023-02-09T16:59:21.058Z,58.71
2023-02-09T17:01:48.736Z,59.49
2023-02-09T17:04:15.337Z,59.25
2023-02-09T17:06:41.709Z,58.66
2023-02-09T17:09:15.296Z,59.93
2023-02-09T17:11:41.720Z,59.33
2023-02-09T17:14:08.230Z,58.83
2023-02-09T17:16:36.843Z,59.42
2023-02-09T17:21:42.226Z,60.06
2023-02-09T17:24:13.168Z,59.50
2023-02-09T17:26:40.508Z,59.51
2023-02-09T17:29:07.146Z,59.32
2023-02-09T17:31:47.100Z,59.36
2023-02-09T17:34:18.853Z,59.01
2023-02-09T17:36:45.356Z,58.06
2023-02-09T17:39:11.960Z,59.57
2023-02-09T17:41:43.151Z,59.70
2023-02-09T17:44:22.309Z,59.51
2023-02-09T17:46:56.003Z,59.90
2023-02-09T17:49:22.443Z,60.93
2023-02-09T17:51:49.267Z,60.50
2023-02-09T17:54:18.676Z,59.54
2023-02-09T17:56:45.417Z,59.93
2023-02-09T17:59:13.243Z,61.24
2023-02-09T18:01:55.062Z,61.77
2023-02-09T18:04:22.827Z,61.11
2023-02-09T18:06:49.492Z,61.63
2023-02-09T18:09:15.920Z,60.66
2023-02-09T18:11:45.323Z,59.84
2023-02-09T18:14:15.421Z,61.95
2023-02-09T18:16:42.662Z,61.58
2023-02-09T18:19:09.611Z,60.61
2023-02-09T18:21:35.978Z,62.08
2023-02-09T18:24:02.498Z,60.82
2023-02-09T18:26:28.844Z,61.59
2023-02-09T18:28:55.242Z,60.20
2023-02-09T18:31:21.628Z,61.16
2023-02-09T18:33:47.996Z,62.53
2023-02-09T18:36:14.857Z,62.05
2023-02-09T18:38:41.586Z,61.80
2023-02-09T18:41:11.502Z,60.96
2023-02-09T18:43:37.843Z,61.00
2023-02-09T18:46:04.365Z,60.81
2023-02-09T18:48:30.814Z,62.46
2023-02-09T18:50:57.108Z,62.34
2023-02-09T18:53:23.434Z,62.56
2023-02-09T18:55:53.081Z,61.95
2023-02-09T18:58:19.505Z,62.08
2023-02-09T19:00:45.905Z,60.65
2023-02-09T19:03:13.718Z,62.11
2023-02-09T19:05:40.974Z,62.12
2023-02-09T19:08:07.524Z,61.36
2023-02-09T19:10:35.809Z,61.25
2023-02-09T19:13:02.967Z,61.85
2023-02-09T19:15:38.808Z,62.78
2023-02-09T19:18:05.187Z,61.38
2023-02-09T19:20:31.913Z,62.54
2023-02-09T19:22:58.420Z,61.67
2023-02-09T19:25:25.984Z,62.58
2023-02-09T19:27:52.736Z,62.13
2023-02-09T19:30:24.731Z,63.27
2023-02-09T19:32:52.334Z,62.79
2023-02-09T19:35:21.989Z,62.89
2023-02-09T19:37:52.258Z,63.12
2023-02-09T19:40:21.701Z,63.03
2023-02-09T19:42:48.347Z,63.14
2023-02-09T19:45:14.871Z,62.89
2023-02-09T19:47:41.301Z,63.40
2023-02-09T19:50:07.671Z,62.75
2023-02-09T19:52:37.218Z,63.65
2023-02-09T19:55:04.314Z,62.18
2023-02-09T19:57:30.697Z,62.49
2023-02-09T19:59:57.066Z,61.98
2023-02-09T20:02:23.466Z,63.54
2023-02-09T20:04:49.788Z,62.42
2023-02-09T20:07:16.174Z,62.12
2023-02-09T20:09:42.522Z,63.00
2023-02-09T20:12:09.006Z,62.63
2023-02-09T20:14:35.327Z,63.14
2023-02-09T20:17:01.642Z,62.61
2023-02-09T20:19:28.057Z,62.60
2023-02-09T20:21:54.365Z,63.57
2023-02-09T20:24:20.696Z,62.49
2023-02-09T20:26:48.042Z,62.70
2023-02-09T20:29:16.621Z,62.62
2023-02-09T20:31:42.968Z,63.58
2023-02-09T20:34:11.473Z,63.08
2023-02-09T20:36:39.671Z,63.79
2023-02-09T20:39:07.258Z,62.63
2023-02-09T20:41:33.579Z,63.97
2023-02-09T20:44:18.408Z,62.58
2023-02-09T20:46:57.368Z,62.98
2023-02-09T20:49:29.288Z,62.63
2023-02-09T20:51:55.609Z,62.00
2023-02-09T20:54:21.936Z,63.31
2023-02-09T20:56:48.293Z,62.55
2023-02-09T20:59:14.813Z,62.23
2023-02-09T21:01:41.746Z,62.69
2023-02-09T21:04:08.696Z,62.01
2023-02-09T21:06:38.602Z,62.01
2023-02-09T21:09:05.595Z,61.56
2023-02-09T21:11:32.030Z,62.37
2023-02-09T21:13:58.516Z,62.61
2023-02-09T21:16:25.540Z,62.75
2023-02-09T21:18:55.778Z,62.69
2023-02-09T21:21:22.290Z,61.36
2023-02-09T21:23:48.722Z,63.40
2023-02-09T21:26:16.501Z,61.91
2023-02-09T21:28:43.749Z,62.88
2023-02-09T21:31:11.794Z,62.60
2023-02-09T21:33:38.256Z,62.25
2023-02-09T21:36:05.267Z,63.21
2023-02-09T21:38:31.720Z,61.49
2023-02-09T21:40:58.044Z,62.60
2023-02-09T21:43:24.367Z,63.45
2023-02-09T21:45:50.717Z,63.05
2023-02-09T21:48:17.030Z,63.23
2023-02-09T21:50:43.346Z,63.59
2023-02-09T21:53:09.619Z,63.11
2023-02-09T21:55:36.211Z,62.20
2023-02-09T21:58:02.519Z,62.02
2023-02-09T22:00:30.672Z,62.99
2023-02-09T22:02:57.065Z,63.30
2023-02-09T22:05:23.366Z,63.29
2023-02-09T22:07:49.978Z,61.74
2023-02-09T22:10:20.264Z,62.88
2023-02-09T22:12:46.583Z,63.07
2023-02-09T22:15:12.949Z,62.73
2023-02-09T22:17:39.307Z,61.31
2023-02-09T22:20:06.484Z,61.46
2023-02-09T22:22:32.830Z,61.00
2023-02-09T22:24:59.144Z,62.60
2023-02-09T22:27:25.777Z,61.47
2023-02-09T22:29:52.065Z,61.12
2023-02-09T22:32:20.288Z,62.65
2023-02-09T22:34:46.619Z,62.65
2023-02-09T22:37:12.916Z,61.56
2023-02-09T22:39:39.192Z,62.90
2023-02-09T22:42:05.657Z,61.60
2023-02-09T22:44:33.346Z,61.53
2023-02-09T22:46:59.686Z,62.95
2023-02-09T22:49:26.027Z,62.77
2023-02-09T22:51:52.438Z,62.60
2023-02-09T22:54:19.544Z,61.11
2023-02-09T22:56:46.318Z,61.79
2023-02-09T22:59:13.706Z,62.96
2023-02-09T23:01:40.337Z,62.51
2023-02-09T23:04:06.848Z,62.02
2023-02-09T23:06:33.314Z,61.10
2023-02-09T23:09:01.259Z,62.90
2023-02-09T23:11:29.034Z,62.12
2023-02-09T23:14:10.975Z,61.80
2023-02-09T23:16:38.401Z,60.80
2023-02-09T23:19:06.498Z,61.96
2023-02-09T23:21:34.572Z,61.42
2023-02-09T23:24:00.929Z,61.63
2023-02-09T23:26:27.498Z,62.34
2023-02-09T23:28:57.120Z,60.94
2023-02-09T23:31:24.033Z,62.12
2023-02-09T23:33:50.413Z,60.94
2023-02-09T23:36:19.332Z,61.29
2023-02-09T23:38:46.523Z,60.85
2023-02-09T23:41:16.827Z,62.62
2023-02-09T23:43:43.468Z,61.67
2023-02-09T23:46:14.171Z,61.47
2023-02-09T23:48:40.990Z,61.32
2023-02-09T23:51:11.112Z,62.40
2023-02-09T23:53:37.470Z,63.45
2023-02-09T23:56:04.156Z,62.12
2023-02-09T23:58:36.170Z,63.43
